createdAt,value
2022-09-23T00:01:02.033Z,981.3
2022-09-23T00:02:08.305Z,981.2
2022-09-23T00:03:14.595Z,981.2
2022-09-23T00:04:21.204Z,981.2
2022-09-23T00:05:27.487Z,981.2
2022-09-23T00:06:33.781Z,981.2
2022-09-23T00:08:46.374Z,981.2
2022-09-23T00:09:52.682Z,981.2
2022-09-23T00:10:59.033Z,981.2
2022-09-23T00:13:11.615Z,981.2
2022-09-23T00:14:23.480Z,981.2
2022-09-23T00:15:36.553Z,981.1
2022-09-23T00:16:49.717Z,981.1
2022-09-23T00:18:09.473Z,981.1
2022-09-23T00:19:15.752Z,981.1
2022-09-23T00:20:28.997Z,981.1
2022-09-23T00:21:40.705Z,981.1
2022-09-23T00:22:55.306Z,981.1
2022-09-23T00:23:53.274Z,981.1
2022-09-23T00:24:59.582Z,981
2022-09-23T00:26:05.884Z,981
2022-09-23T00:28:18.466Z,981
2022-09-23T00:29:24.753Z,981
2022-09-23T00:30:31.086Z,981
2022-09-23T00:31:37.341Z,981
2022-09-23T00:33:49.923Z,981
2022-09-23T00:35:01.819Z,981
2022-09-23T00:36:14.859Z,981
2022-09-23T00:38:41.022Z,981
2022-09-23T00:39:54.084Z,981
2022-09-23T00:41:07.185Z,981
2022-09-23T00:42:34.276Z,981
2022-09-23T00:43:46.005Z,981
2022-09-23T00:45:05.849Z,981
2022-09-23T00:46:25.753Z,981
2022-09-23T00:48:00.842Z,981
2022-09-23T00:48:57.445Z,981
2022-09-23T00:50:10.517Z,981
2022-09-23T00:51:23.612Z,981
2022-09-23T00:53:50.273Z,981
2022-09-23T00:55:03.341Z,981
2022-09-23T00:56:15.225Z,981
2022-09-23T00:57:49.096Z,981
2022-09-23T00:58:55.391Z,981
2022-09-23T01:00:15.235Z,981
2022-09-23T01:01:40.821Z,981
2022-09-23T01:03:02.454Z,981
2022-09-23T01:04:07.074Z,981
2022-09-23T01:05:20.122Z,981
2022-09-23T01:06:33.751Z,981
2022-09-23T01:08:03.444Z,980.9
2022-09-23T01:08:59.901Z,980.9
2022-09-23T01:10:19.059Z,980.9
2022-09-23T01:11:30.973Z,980.9
2022-09-23T01:13:49.115Z,980.9
2022-09-23T01:14:55.403Z,980.9
2022-09-23T01:16:01.678Z,980.9
2022-09-23T01:17:08.361Z,980.8
2022-09-23T01:18:14.554Z,980.8
2022-09-23T01:19:20.863Z,980.8
2022-09-23T01:20:27.147Z,980.8
2022-09-23T01:21:33.421Z,980.8
2022-09-23T01:23:46.088Z,980.7
2022-09-23T01:24:52.359Z,980.7
2022-09-23T01:25:58.674Z,980.7
2022-09-23T01:27:04.989Z,980.7
2022-09-23T01:28:11.252Z,980.7
2022-09-23T01:29:17.553Z,980.7
2022-09-23T01:30:23.845Z,980.7
2022-09-23T01:31:30.123Z,980.7
2022-09-23T01:33:42.705Z,980.7
2022-09-23T01:34:54.570Z,980.7
2022-09-23T01:36:06.482Z,980.6
2022-09-23T01:37:41.537Z,980.6
2022-09-23T01:38:38.196Z,980.6
2022-09-23T01:39:51.263Z,980.6
2022-09-23T01:41:04.420Z,980.6
2022-09-23T01:43:30.580Z,980.6
2022-09-23T01:44:44.146Z,980.6
2022-09-23T01:45:56.031Z,980.6
2022-09-23T01:47:29.646Z,980.6
2022-09-23T01:48:36.020Z,980.6
2022-09-23T01:49:56.319Z,980.5
2022-09-23T01:51:21.747Z,980.5
2022-09-23T01:52:43.275Z,980.5
2022-09-23T01:53:47.917Z,980.5
2022-09-23T01:55:00.980Z,980.5
2022-09-23T01:56:14.025Z,980.5
2022-09-23T01:57:44.073Z,980.5
2022-09-23T01:58:40.720Z,980.5
2022-09-23T01:59:59.548Z,980.5
2022-09-23T02:01:05.997Z,980.5
2022-09-23T02:03:18.424Z,980.5
2022-09-23T02:04:24.740Z,980.5
2022-09-23T02:05:31.007Z,980.4
2022-09-23T02:06:37.287Z,980.4
2022-09-23T02:07:47.120Z,980.4
2022-09-23T02:08:49.916Z,980.4
2022-09-23T02:09:56.169Z,980.4
2022-09-23T02:11:02.481Z,980.4
2022-09-23T02:12:08.763Z,980.4
2022-09-23T02:13:15.079Z,980.4
2022-09-23T02:14:21.367Z,980.4
2022-09-23T02:15:27.653Z,980.4
2022-09-23T02:16:33.979Z,980.4
2022-09-23T02:18:46.508Z,980.4
2022-09-23T02:19:58.379Z,980.4
2022-09-23T02:21:11.457Z,980.4
2022-09-23T02:22:41.152Z,980.4
2022-09-23T02:23:37.610Z,980.4
2022-09-23T02:24:50.760Z,980.4
2022-09-23T02:26:03.797Z,980.3
2022-09-23T02:27:15.704Z,980.3
2022-09-23T02:28:21.972Z,980.3
2022-09-23T02:29:28.311Z,980.3
2022-09-23T02:30:34.575Z,980.3
2022-09-23T02:31:40.884Z,980.3
2022-09-23T02:33:53.462Z,980.3
2022-09-23T02:35:05.304Z,980.3
2022-09-23T02:36:11.625Z,980.3
2022-09-23T02:37:17.881Z,980.2
2022-09-23T02:38:24.202Z,980.2
2022-09-23T02:39:30.762Z,980.2
2022-09-23T02:40:36.838Z,980.2
2022-09-23T02:41:43.069Z,980.2
2022-09-23T02:43:55.672Z,980.2
2022-09-23T02:45:07.553Z,980.2
2022-09-23T02:46:20.649Z,980.2
2022-09-23T02:47:42.078Z,980.1
2022-09-23T02:48:46.736Z,980.1
2022-09-23T02:49:59.832Z,980.1
2022-09-23T02:51:12.898Z,980.1
2022-09-23T02:53:31.384Z,980.1
2022-09-23T02:54:37.639Z,980.1
2022-09-23T02:55:43.928Z,980.1
2022-09-23T02:56:50.222Z,980.1
2022-09-23T02:59:02.844Z,980.1
2022-09-23T03:00:09.108Z,980.1
2022-09-23T03:01:15.503Z,980
2022-09-23T03:02:21.793Z,980
2022-09-23T03:03:27.999Z,980
2022-09-23T03:04:34.280Z,980
2022-09-23T03:05:40.548Z,980
2022-09-23T03:06:46.846Z,980
2022-09-23T03:08:59.504Z,980
2022-09-23T03:10:11.332Z,979.9
2022-09-23T03:11:24.399Z,979.9
2022-09-23T03:12:46.147Z,979.9
2022-09-23T03:13:50.529Z,979.9
2022-09-23T03:15:03.606Z,979.9
2022-09-23T03:16:16.746Z,979.9
2022-09-23T03:18:34.958Z,979.8
2022-09-23T03:19:41.129Z,979.8
2022-09-23T03:20:47.428Z,979.8
2022-09-23T03:21:53.714Z,979.8
2022-09-23T03:24:06.467Z,979.8
2022-09-23T03:25:12.605Z,979.8
2022-09-23T03:26:18.896Z,979.8
2022-09-23T03:28:31.454Z,979.8
2022-09-23T03:29:37.716Z,979.8
2022-09-23T03:30:44.056Z,979.8
2022-09-23T03:31:55.990Z,979.8
2022-09-23T03:33:11.193Z,979.7
2022-09-23T03:34:22.067Z,979.7
2022-09-23T03:35:35.651Z,979.7
2022-09-23T03:36:48.726Z,979.7
2022-09-23T03:38:17.807Z,979.7
2022-09-23T03:39:13.834Z,979.7
2022-09-23T03:40:20.188Z,979.7
2022-09-23T03:41:26.399Z,979.6
2022-09-23T03:42:32.698Z,979.6
2022-09-23T03:43:39.162Z,979.6
2022-09-23T03:45:51.723Z,979.6
2022-09-23T03:46:57.940Z,979.6
2022-09-23T03:48:04.236Z,979.6
2022-09-23T03:49:10.519Z,979.6
2022-09-23T03:51:23.112Z,979.6
2022-09-23T03:52:34.968Z,979.6
2022-09-23T03:53:48.077Z,979.6
2022-09-23T03:55:09.822Z,979.6
2022-09-23T03:56:14.395Z,979.6
2022-09-23T03:57:28.011Z,979.6
2022-09-23T03:58:41.092Z,979.6
2022-09-23T03:59:52.967Z,979.6
2022-09-23T04:00:59.296Z,979.6
2022-09-23T04:02:05.567Z,979.6
2022-09-23T04:03:12.107Z,979.6
2022-09-23T04:04:18.139Z,979.6
2022-09-23T04:05:34.644Z,979.6
2022-09-23T04:06:30.761Z,979.6
2022-09-23T04:07:37.005Z,979.6
2022-09-23T04:08:43.296Z,979.6
2022-09-23T04:10:55.893Z,979.6
2022-09-23T04:12:02.161Z,979.6
2022-09-23T04:13:08.501Z,979.6
2022-09-23T04:14:14.748Z,979.6
2022-09-23T04:15:22.883Z,979.6
2022-09-23T04:16:27.351Z,979.6
2022-09-23T04:17:33.616Z,979.6
2022-09-23T04:18:39.903Z,979.5
2022-09-23T04:20:52.816Z,979.5
2022-09-23T04:22:04.706Z,979.5
2022-09-23T04:23:17.752Z,979.5
2022-09-23T04:24:30.800Z,979.5
2022-09-23T04:25:43.895Z,979.5
2022-09-23T04:26:56.974Z,979.4
2022-09-23T04:28:15.613Z,979.4
2022-09-23T04:29:21.909Z,979.4
2022-09-23T04:31:35.010Z,979.4
2022-09-23T04:32:41.225Z,979.4
2022-09-23T04:33:47.517Z,979.4
2022-09-23T04:36:00.101Z,979.3
2022-09-23T04:37:06.379Z,979.4
2022-09-23T04:38:12.755Z,979.4
2022-09-23T04:39:18.966Z,979.4
2022-09-23T04:41:31.567Z,979.4
2022-09-23T04:42:43.431Z,979.4
2022-09-23T04:43:56.505Z,979.4
2022-09-23T04:45:18.036Z,979.4
2022-09-23T04:46:22.683Z,979.4
2022-09-23T04:47:35.722Z,979.4
2022-09-23T04:48:48.786Z,979.4
2022-09-23T04:51:06.943Z,979.3
2022-09-23T04:52:13.244Z,979.3
2022-09-23T04:53:19.554Z,979.3
2022-09-23T04:54:25.826Z,979.3
2022-09-23T04:56:38.422Z,979.3
2022-09-23T04:57:44.708Z,979.3
2022-09-23T04:58:50.997Z,979.3
2022-09-23T05:01:05.293Z,979.3
2022-09-23T05:02:09.933Z,979.3
2022-09-23T05:03:16.165Z,979.3
2022-09-23T05:04:28.047Z,979.3
2022-09-23T05:05:43.447Z,979.3
2022-09-23T05:06:54.173Z,979.3
2022-09-23T05:08:07.283Z,979.3
2022-09-23T05:09:20.616Z,979.3
2022-09-23T05:10:49.559Z,979.3
2022-09-23T05:11:45.685Z,979.3
2022-09-23T05:12:56.402Z,979.3
2022-09-23T05:13:58.162Z,979.3
2022-09-23T05:16:10.809Z,979.3
2022-09-23T05:17:17.002Z,979.3
2022-09-23T05:18:23.470Z,979.3
2022-09-23T05:19:29.773Z,979.3
2022-09-23T05:21:42.363Z,979.3
2022-09-23T05:22:48.684Z,979.4
2022-09-23T05:24:00.611Z,979.4
2022-09-23T05:25:22.281Z,979.4
2022-09-23T05:26:26.655Z,979.4
2022-09-23T05:27:39.908Z,979.4
2022-09-23T05:28:52.981Z,979.4
2022-09-23T05:30:22.518Z,979.4
2022-09-23T05:31:20.681Z,979.4
2022-09-23T05:32:31.531Z,979.4
2022-09-23T05:33:37.807Z,979.4
2022-09-23T05:34:44.100Z,979.4
2022-09-23T05:35:50.388Z,979.4
2022-09-23T05:36:56.688Z,979.4
2022-09-23T05:38:02.978Z,979.4
2022-09-23T05:39:09.391Z,979.4
2022-09-23T05:41:21.899Z,979.4
2022-09-23T05:42:28.128Z,979.4
2022-09-23T05:43:34.447Z,979.4
2022-09-23T05:44:40.713Z,979.4
2022-09-23T05:45:47.018Z,979.4
2022-09-23T05:46:53.540Z,979.4
2022-09-23T05:47:59.787Z,979.4
2022-09-23T05:49:06.075Z,979.4
2022-09-23T05:50:14.535Z,979.4
2022-09-23T05:51:18.670Z,979.4
2022-09-23T05:52:24.943Z,979.4
2022-09-23T05:53:31.282Z,979.4
2022-09-23T05:54:37.705Z,979.4
2022-09-23T05:55:46.497Z,979.4
2022-09-23T05:56:50.160Z,979.4
2022-09-23T05:57:56.439Z,979.4
2022-09-23T05:59:02.784Z,979.4
2022-09-23T06:01:15.312Z,979.4
2022-09-23T06:02:21.680Z,979.4
2022-09-23T06:03:27.939Z,979.4
2022-09-23T06:04:39.755Z,979.4
2022-09-23T06:05:46.067Z,979.4
2022-09-23T06:06:52.375Z,979.4
2022-09-23T06:07:58.665Z,979.4
2022-09-23T06:09:04.959Z,979.4
2022-09-23T06:11:17.503Z,979.4
2022-09-23T06:12:23.820Z,979.4
2022-09-23T06:13:30.101Z,979.4
2022-09-23T06:14:36.377Z,979.4
2022-09-23T06:16:48.986Z,979.4
2022-09-23T06:18:00.861Z,979.4
2022-09-23T06:19:13.915Z,979.4
2022-09-23T06:20:35.536Z,979.4
2022-09-23T06:21:40.064Z,979.5
2022-09-23T06:22:55.422Z,979.5
2022-09-23T06:24:06.336Z,979.5
2022-09-23T06:26:24.358Z,979.5
2022-09-23T06:27:30.673Z,979.5
2022-09-23T06:28:37.431Z,979.5
2022-09-23T06:30:50.026Z,979.5
2022-09-23T06:31:56.415Z,979.5
2022-09-23T06:33:02.608Z,979.5
2022-09-23T06:34:12.096Z,979.5
2022-09-23T06:36:37.404Z,979.5
2022-09-23T06:37:27.807Z,979.5
2022-09-23T06:38:34.102Z,979.5
2022-09-23T06:39:54.650Z,979.5
2022-09-23T06:40:59.046Z,979.5
2022-09-23T06:42:12.289Z,979.5
2022-09-23T06:43:25.275Z,979.5
2022-09-23T06:44:38.244Z,979.5
2022-09-23T06:45:51.347Z,979.5
2022-09-23T06:47:09.977Z,979.5
2022-09-23T06:48:16.279Z,979.5
2022-09-23T06:49:22.579Z,979.5
2022-09-23T06:51:35.156Z,979.5
2022-09-23T06:52:41.416Z,979.5
2022-09-23T06:53:47.726Z,979.5
2022-09-23T06:56:00.324Z,979.5
2022-09-23T06:57:06.606Z,979.5
2022-09-23T06:58:12.898Z,979.5
2022-09-23T06:59:19.212Z,979.5
2022-09-23T07:00:37.860Z,979.5
2022-09-23T07:01:49.801Z,979.5
2022-09-23T07:03:01.673Z,979.5
2022-09-23T07:04:14.954Z,979.5
2022-09-23T07:05:30.229Z,979.5
2022-09-23T07:06:41.095Z,979.5
2022-09-23T07:07:54.681Z,979.5
2022-09-23T07:09:13.348Z,979.6
2022-09-23T07:11:25.923Z,979.6
2022-09-23T07:12:32.200Z,979.6
2022-09-23T07:13:38.534Z,979.6
2022-09-23T07:15:51.145Z,979.6
2022-09-23T07:16:57.373Z,979.6
2022-09-23T07:18:03.661Z,979.6
2022-09-23T07:19:09.963Z,979.6
2022-09-23T07:20:19.838Z,979.6
2022-09-23T07:21:22.533Z,979.6
2022-09-23T07:22:34.422Z,979.6
2022-09-23T07:23:47.505Z,979.6
2022-09-23T07:25:09.056Z,979.6
2022-09-23T07:26:14.024Z,979.6
2022-09-23T07:27:27.108Z,979.6
2022-09-23T07:28:40.686Z,979.6
2022-09-23T07:31:00.781Z,979.6
2022-09-23T07:32:12.593Z,979.6
2022-09-23T07:33:24.690Z,979.6
2022-09-23T07:34:17.709Z,979.6
2022-09-23T07:36:30.296Z,979.6
2022-09-23T07:37:36.617Z,979.6
2022-09-23T07:38:45.375Z,979.6
2022-09-23T07:39:49.193Z,979.6
2022-09-23T07:40:55.474Z,979.6
2022-09-23T07:42:01.773Z,979.6
2022-09-23T07:43:08.049Z,979.6
2022-09-23T07:44:14.339Z,979.6
2022-09-23T07:46:26.994Z,979.6
2022-09-23T07:47:38.784Z,979.6
2022-09-23T07:48:51.870Z,979.6
2022-09-23T07:50:13.646Z,979.7
2022-09-23T07:51:18.016Z,979.7
2022-09-23T07:52:31.090Z,979.7
2022-09-23T07:53:44.152Z,979.7
2022-09-23T07:56:02.319Z,979.7
2022-09-23T07:57:08.588Z,979.7
2022-09-23T07:58:14.899Z,979.7
2022-09-23T07:59:21.216Z,979.7
2022-09-23T08:01:33.906Z,979.7
2022-09-23T08:02:40.129Z,979.7
2022-09-23T08:03:46.381Z,979.7
2022-09-23T08:04:52.635Z,979.7
2022-09-23T08:05:58.966Z,979.7
2022-09-23T08:07:05.274Z,979.7
2022-09-23T08:08:11.537Z,979.7
2022-09-23T08:09:17.829Z,979.7
2022-09-23T08:10:24.907Z,979.8
2022-09-23T08:11:30.904Z,979.7
2022-09-23T08:12:37.171Z,979.8
2022-09-23T08:13:43.504Z,979.8
2022-09-23T08:15:56.124Z,979.8
2022-09-23T08:17:02.591Z,979.8
2022-09-23T08:18:14.254Z,979.8
2022-09-23T08:19:27.365Z,979.7
2022-09-23T08:20:51.152Z,979.7
2022-09-23T08:21:53.490Z,979.7
2022-09-23T08:23:06.544Z,979.8
2022-09-23T08:24:19.603Z,979.8
2022-09-23T08:26:37.783Z,979.8
2022-09-23T08:27:44.088Z,979.8
2022-09-23T08:28:50.387Z,979.8
2022-09-23T08:31:03.041Z,979.8
2022-09-23T08:32:09.272Z,979.8
2022-09-23T08:33:18.527Z,979.8
2022-09-23T08:34:21.846Z,979.7
2022-09-23T08:36:34.403Z,979.7
2022-09-23T08:37:40.719Z,979.7
2022-09-23T08:38:47.016Z,979.7
2022-09-23T08:40:15.362Z,979.7
2022-09-23T08:41:11.954Z,979.7
2022-09-23T08:42:25.029Z,979.6
2022-09-23T08:43:38.079Z,979.6
2022-09-23T08:46:04.318Z,979.6
2022-09-23T08:47:17.306Z,979.6
2022-09-23T08:48:29.184Z,979.6
2022-09-23T08:50:03.013Z,979.6
2022-09-23T08:51:09.294Z,979.6
2022-09-23T08:52:29.206Z,979.6
2022-09-23T08:53:54.569Z,979.6
2022-09-23T08:55:16.354Z,979.5
2022-09-23T08:56:20.735Z,979.5
2022-09-23T08:57:33.797Z,979.5
2022-09-23T08:58:46.872Z,979.5
2022-09-23T09:00:16.581Z,979.5
2022-09-23T09:01:13.057Z,979.5
2022-09-23T09:02:25.380Z,979.5
2022-09-23T09:03:31.587Z,979.5
2022-09-23T09:04:37.883Z,979.5
2022-09-23T09:06:53.815Z,979.5
2022-09-23T09:07:56.759Z,979.5
2022-09-23T09:09:03.178Z,979.5
2022-09-23T09:11:15.649Z,979.5
2022-09-23T09:12:21.939Z,979.5
2022-09-23T09:13:28.235Z,979.5
2022-09-23T09:14:34.516Z,979.4
2022-09-23T09:15:48.742Z,979.5
2022-09-23T09:17:00.523Z,979.5
2022-09-23T09:18:12.680Z,979.4
2022-09-23T09:19:25.785Z,979.5
2022-09-23T09:20:54.349Z,979.5
2022-09-23T09:21:52.419Z,979.5
2022-09-23T09:23:04.279Z,979.5
2022-09-23T09:24:10.571Z,979.5
2022-09-23T09:26:23.168Z,979.5
2022-09-23T09:27:29.438Z,979.5
2022-09-23T09:28:35.757Z,979.5
2022-09-23T09:29:42.442Z,979.4
2022-09-23T09:30:48.791Z,979.4
2022-09-23T09:32:00.204Z,979.4
2022-09-23T09:33:06.488Z,979.4
2022-09-23T09:34:12.800Z,979.4
2022-09-23T09:35:20.040Z,979.4
2022-09-23T09:36:25.369Z,979.4
2022-09-23T09:37:31.886Z,979.4
2022-09-23T09:38:37.949Z,979.4
2022-09-23T09:40:50.567Z,979.4
2022-09-23T09:42:02.392Z,979.4
2022-09-23T09:43:34.543Z,979.4
2022-09-23T09:44:45.051Z,979.4
2022-09-23T09:45:41.615Z,979.4
2022-09-23T09:46:54.782Z,979.4
2022-09-23T09:48:07.765Z,979.4
2022-09-23T09:49:26.946Z,979.4
2022-09-23T09:51:39.527Z,979.3
2022-09-23T09:52:45.760Z,979.3
2022-09-23T09:53:52.083Z,979.3
2022-09-23T09:54:58.352Z,979.3
2022-09-23T09:56:05.698Z,979.3
2022-09-23T09:57:10.924Z,979.3
2022-09-23T09:58:17.194Z,979.3
2022-09-23T09:59:23.489Z,979.3
2022-09-23T10:01:36.153Z,979.2
2022-09-23T10:02:47.929Z,979.2
2022-09-23T10:04:01.022Z,979.2
2022-09-23T10:05:22.604Z,979.2
2022-09-23T10:06:27.559Z,979.2
2022-09-23T10:07:40.627Z,979.2
2022-09-23T10:08:53.705Z,979.2
2022-09-23T10:11:11.871Z,979.2
2022-09-23T10:12:18.155Z,979.2
2022-09-23T10:13:24.435Z,979.2
2022-09-23T10:14:30.748Z,979.2
2022-09-23T10:16:43.518Z,979.2
2022-09-23T10:17:49.779Z,979.1
2022-09-23T10:18:56.063Z,979.1
2022-09-23T10:21:08.676Z,979.1
2022-09-23T10:22:14.945Z,979.1
2022-09-23T10:23:21.250Z,979.1
2022-09-23T10:24:33.096Z,979.1
2022-09-23T10:25:48.423Z,979.1
2022-09-23T10:26:59.267Z,979.1
2022-09-23T10:28:12.307Z,979.1
2022-09-23T10:29:25.410Z,979.1
2022-09-23T10:30:54.500Z,979
2022-09-23T10:31:50.341Z,979.1
2022-09-23T10:32:56.625Z,979.1
2022-09-23T10:34:02.948Z,979
2022-09-23T10:36:15.541Z,979
2022-09-23T10:37:21.807Z,979
2022-09-23T10:38:28.114Z,979
2022-09-23T10:39:34.399Z,979
2022-09-23T10:41:46.982Z,979
2022-09-23T10:42:53.263Z,979
2022-09-23T10:44:05.149Z,979
2022-09-23T10:45:26.662Z,979
2022-09-23T10:46:31.341Z,979
2022-09-23T10:47:44.399Z,979
2022-09-23T10:48:57.441Z,979
2022-09-23T10:50:27.010Z,978.9
2022-09-23T10:51:26.023Z,978.9
2022-09-23T10:52:35.443Z,978.9
2022-09-23T10:53:41.743Z,978.9
2022-09-23T10:55:54.797Z,978.9
2022-09-23T10:57:01.070Z,978.9
2022-09-23T10:58:07.380Z,978.9
2022-09-23T10:59:13.665Z,978.9
2022-09-23T11:01:26.332Z,978.9
2022-09-23T11:02:32.545Z,978.9
2022-09-23T11:03:38.820Z,978.9
2022-09-23T11:04:45.207Z,978.8
2022-09-23T11:05:56.990Z,978.8
2022-09-23T11:07:10.139Z,978.8
2022-09-23T11:08:23.157Z,978.8
2022-09-23T11:09:36.217Z,978.8
2022-09-23T11:10:49.271Z,978.7
2022-09-23T11:12:07.945Z,978.7
2022-09-23T11:13:19.825Z,978.7
2022-09-23T11:14:31.691Z,978.7
2022-09-23T11:15:44.195Z,978.7
2022-09-23T11:16:44.351Z,978.7
2022-09-23T11:17:50.635Z,978.6
2022-09-23T11:18:56.881Z,978.6
2022-09-23T11:21:09.446Z,978.6
2022-09-23T11:22:15.777Z,978.6
2022-09-23T11:23:22.070Z,978.6
2022-09-23T11:24:28.331Z,978.6
2022-09-23T11:26:40.918Z,978.6
2022-09-23T11:27:52.784Z,978.6
2022-09-23T11:29:06.070Z,978.6
2022-09-23T11:31:32.367Z,978.6
2022-09-23T11:32:45.458Z,978.6
2022-09-23T11:33:59.045Z,978.6
2022-09-23T11:35:21.733Z,978.6
2022-09-23T11:36:37.742Z,978.6
2022-09-23T11:37:57.604Z,978.5
2022-09-23T11:39:17.967Z,978.5
2022-09-23T11:40:42.321Z,978.5
2022-09-23T11:41:43.118Z,978.5
2022-09-23T11:42:56.194Z,978.5
2022-09-23T11:44:09.818Z,978.5
2022-09-23T11:46:35.917Z,978.4
2022-09-23T11:47:49.502Z,978.4
2022-09-23T11:49:01.372Z,978.4
2022-09-23T11:50:28.016Z,978.4
2022-09-23T11:51:41.090Z,978.4
2022-09-23T11:53:00.947Z,978.4
2022-09-23T11:54:20.675Z,978.3
2022-09-23T11:55:51.331Z,978.3
2022-09-23T11:56:48.298Z,978.3
2022-09-23T11:57:58.821Z,978.3
2022-09-23T11:59:12.072Z,978.3
2022-09-23T12:00:40.318Z,978.3
2022-09-23T12:01:39.049Z,978.3
2022-09-23T12:02:58.730Z,978.2
2022-09-23T12:03:56.466Z,978.2
2022-09-23T12:06:08.878Z,978.2
2022-09-23T12:07:15.176Z,978.2
2022-09-23T12:08:21.484Z,978.2
2022-09-23T12:09:47.553Z,978.2
2022-09-23T12:10:36.942Z,978.1
2022-09-23T12:11:40.324Z,978.2
2022-09-23T12:12:46.650Z,978.1
2022-09-23T12:13:52.946Z,978.1
2022-09-23T12:16:05.521Z,978.1
2022-09-23T12:17:17.421Z,978.1
2022-09-23T12:18:30.465Z,978.1
2022-09-23T12:19:43.533Z,978.1
2022-09-23T12:20:56.602Z,978.1
2022-09-23T12:22:09.683Z,978.1
2022-09-23T12:23:28.336Z,978.1
2022-09-23T12:24:34.619Z,978.1
2022-09-23T12:25:51.144Z,978.1
2022-09-23T12:26:47.208Z,978.1
2022-09-23T12:27:53.491Z,978.1
2022-09-23T12:28:59.772Z,978.1
2022-09-23T12:31:12.516Z,978.1
2022-09-23T12:32:18.656Z,978.1
2022-09-23T12:33:24.996Z,978.1
2022-09-23T12:34:31.244Z,978.1
2022-09-23T12:35:39.310Z,978
2022-09-23T12:36:43.843Z,978
2022-09-23T12:37:50.108Z,978
2022-09-23T12:38:56.435Z,978
2022-09-23T12:41:09.023Z,978
2022-09-23T12:42:20.884Z,978
2022-09-23T12:43:33.933Z,978
2022-09-23T12:44:47.013Z,978
2022-09-23T12:46:00.139Z,978
2022-09-23T12:47:13.158Z,978
2022-09-23T12:48:31.832Z,978
2022-09-23T12:49:38.100Z,978
2022-09-23T12:50:56.263Z,978
2022-09-23T12:51:51.168Z,977.9
2022-09-23T12:52:57.457Z,977.9
2022-09-23T12:54:03.795Z,977.9
2022-09-23T12:56:16.353Z,977.9
2022-09-23T12:57:22.647Z,977.9
2022-09-23T12:58:28.975Z,977.9
2022-09-23T12:59:40.845Z,977.9
2022-09-23T13:01:53.526Z,977.8
2022-09-23T13:03:05.296Z,977.8
2022-09-23T13:04:18.384Z,977.8
2022-09-23T13:05:33.678Z,977.8
2022-09-23T13:06:44.517Z,977.8
2022-09-23T13:07:57.570Z,977.8
2022-09-23T13:09:16.270Z,977.8
2022-09-23T13:10:37.111Z,977.8
2022-09-23T13:11:28.821Z,977.7
2022-09-23T13:12:35.107Z,977.7
2022-09-23T13:13:41.411Z,977.7
2022-09-23T13:14:47.703Z,977.7
2022-09-23T13:15:53.978Z,977.7
2022-09-23T13:17:00.288Z,977.7
2022-09-23T13:18:06.568Z,977.6
2022-09-23T13:19:12.874Z,977.6
2022-09-23T13:21:25.502Z,977.6
2022-09-23T13:22:31.774Z,977.6
2022-09-23T13:23:38.028Z,977.6
2022-09-23T13:24:44.352Z,977.6
2022-09-23T13:26:56.978Z,977.5
2022-09-23T13:28:08.789Z,977.5
2022-09-23T13:29:21.836Z,977.5
2022-09-23T13:30:43.569Z,977.5
2022-09-23T13:31:48.029Z,977.5
2022-09-23T13:33:01.071Z,977.5
2022-09-23T13:34:14.131Z,977.5
2022-09-23T13:36:32.306Z,977.5
2022-09-23T13:37:38.598Z,977.5
2022-09-23T13:38:44.886Z,977.5
2022-09-23T13:39:51.229Z,977.4
2022-09-23T13:40:57.512Z,977.4
2022-09-23T13:42:03.742Z,977.4
2022-09-23T13:43:10.041Z,977.4
2022-09-23T13:44:16.471Z,977.4
2022-09-23T13:46:29.051Z,977.3
2022-09-23T13:47:35.358Z,977.3
2022-09-23T13:48:41.643Z,977.3
2022-09-23T13:49:48.037Z,977.3
2022-09-23T13:50:54.250Z,977.3
2022-09-23T13:52:00.587Z,977.3
2022-09-23T13:53:06.848Z,977.3
2022-09-23T13:54:13.102Z,977.3
2022-09-23T13:56:25.763Z,977.3
2022-09-23T13:57:37.603Z,977.3
2022-09-23T13:58:50.652Z,977.3
2022-09-23T14:00:12.400Z,977.3
2022-09-23T14:01:17.039Z,977.3
2022-09-23T14:02:30.127Z,977.2
2022-09-23T14:03:43.658Z,977.2
2022-09-23T14:06:01.826Z,977.2
2022-09-23T14:07:08.127Z,977.2
2022-09-23T14:08:14.413Z,977.2
2022-09-23T14:09:20.692Z,977.2
2022-09-23T14:11:33.280Z,977.2
2022-09-23T14:12:39.570Z,977.2
2022-09-23T14:13:45.848Z,977.2
2022-09-23T14:15:58.501Z,977.1
2022-09-23T14:17:04.725Z,977.1
2022-09-23T14:18:11.020Z,977.1
2022-09-23T14:19:23.255Z,977.1
2022-09-23T14:20:38.812Z,977.1
2022-09-23T14:21:49.396Z,977
2022-09-23T14:23:02.470Z,977
2022-09-23T14:24:15.533Z,977
2022-09-23T14:26:40.510Z,977
2022-09-23T14:27:46.760Z,977
2022-09-23T14:28:53.053Z,977
2022-09-23T14:31:05.995Z,976.9
2022-09-23T14:32:12.171Z,976.9
2022-09-23T14:33:18.453Z,976.9
2022-09-23T14:34:24.757Z,976.9
2022-09-23T14:36:37.318Z,976.9
2022-09-23T14:37:43.662Z,976.9
2022-09-23T14:38:49.948Z,976.9
2022-09-23T14:40:10.587Z,976.9
2022-09-23T14:41:14.882Z,976.9
2022-09-23T14:42:27.994Z,976.9
2022-09-23T14:43:41.024Z,976.9
2022-09-23T14:45:10.563Z,976.8
2022-09-23T14:46:07.253Z,976.8
2022-09-23T14:47:25.829Z,976.8
2022-09-23T14:48:37.707Z,976.8
2022-09-23T14:49:43.987Z,976.8
2022-09-23T14:50:55.880Z,976.8
2022-09-23T14:52:02.211Z,976.8
2022-09-23T14:53:08.467Z,976.8
2022-09-23T14:54:14.733Z,976.8
2022-09-23T14:56:27.343Z,976.8
2022-09-23T14:57:33.788Z,976.8
2022-09-23T14:58:40.058Z,976.8
2022-09-23T14:59:46.356Z,976.8
2022-09-23T15:00:52.695Z,976.8
2022-09-23T15:01:58.944Z,976.8
2022-09-23T15:03:05.308Z,976.8
2022-09-23T15:04:11.564Z,976.7
2022-09-23T15:06:24.149Z,976.7
2022-09-23T15:07:36.025Z,976.7
2022-09-23T15:08:49.107Z,976.7
2022-09-23T15:10:18.639Z,976.7
2022-09-23T15:11:15.222Z,976.7
2022-09-23T15:12:28.299Z,976.6
2022-09-23T15:13:41.435Z,976.7
2022-09-23T15:14:53.250Z,976.6
2022-09-23T15:15:59.588Z,976.6
2022-09-23T15:17:05.837Z,976.6
2022-09-23T15:18:12.124Z,976.6
2022-09-23T15:19:18.418Z,976.6
2022-09-23T15:20:24.730Z,976.6
2022-09-23T15:21:31.020Z,976.6
2022-09-23T15:22:37.293Z,976.6
2022-09-23T15:23:43.581Z,976.6
2022-09-23T15:24:49.874Z,976.6
2022-09-23T15:25:56.174Z,976.7
2022-09-23T15:27:02.455Z,976.7
2022-09-23T15:28:08.764Z,976.7
2022-09-23T15:29:15.184Z,976.7
2022-09-23T15:31:27.673Z,976.7
2022-09-23T15:32:33.918Z,976.7
2022-09-23T15:33:40.207Z,976.7
2022-09-23T15:34:46.508Z,976.7
2022-09-23T15:35:52.793Z,976.6
2022-09-23T15:36:59.089Z,976.6
2022-09-23T15:38:05.349Z,976.6
2022-09-23T15:39:11.661Z,976.6
2022-09-23T15:41:24.238Z,976.6
2022-09-23T15:42:30.546Z,976.6
2022-09-23T15:43:36.816Z,976.6
2022-09-23T15:44:43.122Z,976.6
2022-09-23T15:46:02.573Z,976.5
2022-09-23T15:46:55.817Z,976.5
2022-09-23T15:48:02.170Z,976.5
2022-09-23T15:49:08.421Z,976.5
2022-09-23T15:51:20.986Z,976.5
2022-09-23T15:52:32.874Z,976.5
2022-09-23T15:53:44.747Z,976.5
2022-09-23T15:56:09.712Z,976.5
2022-09-23T15:57:22.761Z,976.5
2022-09-23T15:58:35.823Z,976.5
2022-09-23T15:59:57.390Z,976.5
2022-09-23T16:01:02.073Z,976.5
2022-09-23T16:02:15.067Z,976.5
2022-09-23T16:03:26.924Z,976.5
2022-09-23T16:04:33.221Z,976.4
2022-09-23T16:05:49.909Z,976.4
2022-09-23T16:06:45.802Z,976.4
2022-09-23T16:07:52.075Z,976.4
2022-09-23T16:08:58.388Z,976.3
2022-09-23T16:11:10.975Z,976.3
2022-09-23T16:12:17.265Z,976.2
2022-09-23T16:13:23.710Z,976.2
2022-09-23T16:14:30.032Z,976.2
2022-09-23T16:16:42.659Z,976.2
2022-09-23T16:17:54.447Z,976.2
2022-09-23T16:19:07.686Z,976.2
2022-09-23T16:20:29.042Z,976.2
2022-09-23T16:21:33.665Z,976.3
2022-09-23T16:22:46.742Z,976.3
2022-09-23T16:23:59.814Z,976.3
2022-09-23T16:26:23.927Z,976.3
2022-09-23T16:27:30.201Z,976.3
2022-09-23T16:28:36.532Z,976.3
2022-09-23T16:29:42.804Z,976.3
2022-09-23T16:31:55.466Z,976.3
2022-09-23T16:33:01.672Z,976.3
2022-09-23T16:34:07.981Z,976.3
2022-09-23T16:36:20.541Z,976.3
2022-09-23T16:37:26.839Z,976.3
2022-09-23T16:38:38.723Z,976.2
2022-09-23T16:39:50.586Z,976.2
2022-09-23T16:41:02.513Z,976.2
2022-09-23T16:42:15.555Z,976.2
2022-09-23T16:43:28.618Z,976.2
2022-09-23T16:44:41.685Z,976.2
2022-09-23T16:45:57.191Z,976.2
2022-09-23T16:47:13.456Z,976.2
2022-09-23T16:48:19.691Z,976.2
2022-09-23T16:49:25.969Z,976.2